Terminal Aerodrome Forecast
Issued by NWS

Home | Current Version | Previous Version | Text Only | Print | Product List | Glossary On
Versions: 1 2 3 4 5 6 7 8 9 10 11 12 13
000
FTUS45 KRIW 041720
TAFCPR
TAF
KCPR 041720Z 0418/0518 22013G22KT P6SM FEW150
     FM050100 17012G18KT P6SM VCTS SCT100CB
     FM050600 18011KT P6SM FEW110
     FM051400 22014KT P6SM FEW120=

USA.gov is the U.S. government's official web portal to all federal, state and local government web resources and services.